sensor_id;sensor_type;location;lat;lon;timestamp;P1;durP1;ratioP1;P2;durP2;ratioP2
10343;SDS011;5217;43.960;10.954;2023-02-14T00:01:50;7.10;;;6.40;;
10343;SDS011;5217;43.960;10.954;2023-02-14T00:04:20;6.93;;;6.33;;
10343;SDS011;5217;43.960;10.954;2023-02-14T00:06:48;6.57;;;6.03;;
10343;SDS011;5217;43.960;10.954;2023-02-14T00:09:17;6.80;;;6.20;;
10343;SDS011;5217;43.960;10.954;2023-02-14T00:11:46;7.17;;;6.30;;
10343;SDS011;5217;43.960;10.954;2023-02-14T00:14:14;7.17;;;6.47;;
10343;SDS011;5217;43.960;10.954;2023-02-14T00:17:00;7.30;;;6.60;;
10343;SDS011;5217;43.960;10.954;2023-02-14T00:19:31;7.13;;;6.43;;
10343;SDS011;5217;43.960;10.954;2023-02-14T00:22:00;6.87;;;6.23;;
10343;SDS011;5217;43.960;10.954;2023-02-14T00:24:29;7.07;;;6.47;;
10343;SDS011;5217;43.960;10.954;2023-02-14T00:26:57;6.93;;;6.33;;
10343;SDS011;5217;43.960;10.954;2023-02-14T00:29:26;6.67;;;6.00;;
10343;SDS011;5217;43.960;10.954;2023-02-14T00:31:57;7.13;;;6.43;;
10343;SDS011;5217;43.960;10.954;2023-02-14T00:34:26;6.43;;;5.77;;
10343;SDS011;5217;43.960;10.954;2023-02-14T00:36:56;6.50;;;5.90;;
10343;SDS011;5217;43.960;10.954;2023-02-14T00:39:25;6.77;;;6.17;;
10343;SDS011;5217;43.960;10.954;2023-02-14T00:41:54;7.20;;;6.50;;
10343;SDS011;5217;43.960;10.954;2023-02-14T00:44:22;7.43;;;6.73;;
10343;SDS011;5217;43.960;10.954;2023-02-14T00:46:51;7.70;;;6.90;;
10343;SDS011;5217;43.960;10.954;2023-02-14T00:49:19;7.50;;;6.80;;
10343;SDS011;5217;43.960;10.954;2023-02-14T00:51:47;7.33;;;6.67;;
10343;SDS011;5217;43.960;10.954;2023-02-14T00:54:17;7.30;;;6.57;;
10343;SDS011;5217;43.960;10.954;2023-02-14T00:56:45;6.90;;;6.20;;
10343;SDS011;5217;43.960;10.954;2023-02-14T00:59:14;7.60;;;6.80;;
10343;SDS011;5217;43.960;10.954;2023-02-14T01:01:42;6.70;;;6.10;;
10343;SDS011;5217;43.960;10.954;2023-02-14T01:04:10;7.00;;;6.40;;
10343;SDS011;5217;43.960;10.954;2023-02-14T01:06:39;6.93;;;6.23;;
10343;SDS011;5217;43.960;10.954;2023-02-14T01:09:07;7.13;;;6.47;;
10343;SDS011;5217;43.960;10.954;2023-02-14T01:11:37;7.20;;;6.50;;
10343;SDS011;5217;43.960;10.954;2023-02-14T01:14:06;7.43;;;6.70;;
10343;SDS011;5217;43.960;10.954;2023-02-14T01:16:34;6.57;;;5.97;;
10343;SDS011;5217;43.960;10.954;2023-02-14T01:19:04;7.77;;;6.50;;
10343;SDS011;5217;43.960;10.954;2023-02-14T01:21:34;6.97;;;6.23;;
10343;SDS011;5217;43.960;10.954;2023-02-14T01:24:04;7.27;;;6.60;;
10343;SDS011;5217;43.960;10.954;2023-02-14T01:26:33;6.53;;;5.93;;
10343;SDS011;5217;43.960;10.954;2023-02-14T01:29:03;6.70;;;6.10;;
10343;SDS011;5217;43.960;10.954;2023-02-14T01:31:33;6.93;;;6.33;;
10343;SDS011;5217;43.960;10.954;2023-02-14T01:34:02;7.17;;;6.57;;
10343;SDS011;5217;43.960;10.954;2023-02-14T01:36:32;7.60;;;6.90;;
10343;SDS011;5217;43.960;10.954;2023-02-14T01:39:03;7.37;;;6.67;;
10343;SDS011;5217;43.960;10.954;2023-02-14T01:41:34;7.33;;;6.60;;
10343;SDS011;5217;43.960;10.954;2023-02-14T01:47:09;7.20;;;6.50;;
10343;SDS011;5217;43.960;10.954;2023-02-14T01:49:40;7.10;;;6.50;;
10343;SDS011;5217;43.960;10.954;2023-02-14T01:52:13;7.30;;;6.60;;
10343;SDS011;5217;43.960;10.954;2023-02-14T01:54:45;6.97;;;6.30;;
10343;SDS011;5217;43.960;10.954;2023-02-14T01:57:18;7.73;;;7.03;;
10343;SDS011;5217;43.960;10.954;2023-02-14T01:59:50;6.80;;;6.20;;
10343;SDS011;5217;43.960;10.954;2023-02-14T02:02:23;7.60;;;6.80;;
10343;SDS011;5217;43.960;10.954;2023-02-14T02:04:52;7.80;;;7.10;;
10343;SDS011;5217;43.960;10.954;2023-02-14T02:07:23;7.13;;;6.43;;
10343;SDS011;5217;43.960;10.954;2023-02-14T02:09:54;7.40;;;6.70;;
10343;SDS011;5217;43.960;10.954;2023-02-14T02:12:25;7.67;;;6.90;;
10343;SDS011;5217;43.960;10.954;2023-02-14T02:14:56;7.47;;;6.83;;
10343;SDS011;5217;43.960;10.954;2023-02-14T02:17:28;7.83;;;7.07;;
10343;SDS011;5217;43.960;10.954;2023-02-14T02:23:19;7.63;;;6.23;;
10343;SDS011;5217;43.960;10.954;2023-02-14T02:29:19;7.00;;;6.40;;
10343;SDS011;5217;43.960;10.954;2023-02-14T02:32:26;8.30;;;7.40;;
10343;SDS011;5217;43.960;10.954;2023-02-14T02:35:30;7.33;;;6.63;;
10343;SDS011;5217;43.960;10.954;2023-02-14T02:38:15;7.60;;;6.90;;
10343;SDS011;5217;43.960;10.954;2023-02-14T02:40:57;7.03;;;6.43;;
10343;SDS011;5217;43.960;10.954;2023-02-14T02:43:34;7.67;;;6.97;;
10343;SDS011;5217;43.960;10.954;2023-02-14T02:46:12;7.80;;;7.10;;
10343;SDS011;5217;43.960;10.954;2023-02-14T02:49:05;7.87;;;7.07;;
10343;SDS011;5217;43.960;10.954;2023-02-14T02:52:02;9.03;;;8.17;;
10343;SDS011;5217;43.960;10.954;2023-02-14T02:54:52;9.60;;;8.60;;
10343;SDS011;5217;43.960;10.954;2023-02-14T02:57:28;10.77;;;9.67;;
10343;SDS011;5217;43.960;10.954;2023-02-14T03:00:02;10.20;;;9.20;;
10343;SDS011;5217;43.960;10.954;2023-02-14T03:02:33;10.10;;;9.03;;
10343;SDS011;5217;43.960;10.954;2023-02-14T03:05:20;9.47;;;8.57;;
10343;SDS011;5217;43.960;10.954;2023-02-14T03:07:51;10.03;;;9.13;;
10343;SDS011;5217;43.960;10.954;2023-02-14T03:10:20;10.53;;;9.63;;
10343;SDS011;5217;43.960;10.954;2023-02-14T03:13:02;10.60;;;9.60;;
10343;SDS011;5217;43.960;10.954;2023-02-14T03:19:11;10.80;;;9.70;;
10343;SDS011;5217;43.960;10.954;2023-02-14T03:22:20;11.80;;;10.60;;
10343;SDS011;5217;43.960;10.954;2023-02-14T03:25:02;10.57;;;9.57;;
10343;SDS011;5217;43.960;10.954;2023-02-14T03:27:37;10.87;;;9.87;;
10343;SDS011;5217;43.960;10.954;2023-02-14T03:30:13;10.20;;;9.20;;
10343;SDS011;5217;43.960;10.954;2023-02-14T03:32:48;10.00;;;9.00;;
10343;SDS011;5217;43.960;10.954;2023-02-14T03:35:21;9.60;;;8.67;;
10343;SDS011;5217;43.960;10.954;2023-02-14T03:37:59;9.50;;;8.50;;
10343;SDS011;5217;43.960;10.954;2023-02-14T03:40:36;9.10;;;8.20;;
10343;SDS011;5217;43.960;10.954;2023-02-14T03:43:09;9.93;;;8.93;;
10343;SDS011;5217;43.960;10.954;2023-02-14T03:45:41;9.67;;;8.67;;
10343;SDS011;5217;43.960;10.954;2023-02-14T03:48:13;8.97;;;8.13;;
10343;SDS011;5217;43.960;10.954;2023-02-14T03:50:43;8.87;;;8.07;;
10343;SDS011;5217;43.960;10.954;2023-02-14T03:53:15;8.70;;;7.87;;
10343;SDS011;5217;43.960;10.954;2023-02-14T03:55:50;8.13;;;7.37;;
10343;SDS011;5217;43.960;10.954;2023-02-14T03:58:22;8.67;;;7.77;;
10343;SDS011;5217;43.960;10.954;2023-02-14T04:00:56;8.90;;;8.10;;
10343;SDS011;5217;43.960;10.954;2023-02-14T04:03:29;8.43;;;7.73;;
10343;SDS011;5217;43.960;10.954;2023-02-14T04:05:59;8.87;;;8.07;;
10343;SDS011;5217;43.960;10.954;2023-02-14T04:08:28;8.37;;;7.57;;
10343;SDS011;5217;43.960;10.954;2023-02-14T04:10:59;8.97;;;7.77;;
10343;SDS011;5217;43.960;10.954;2023-02-14T04:13:29;9.20;;;8.27;;
10343;SDS011;5217;43.960;10.954;2023-02-14T04:15:58;10.00;;;9.00;;
10343;SDS011;5217;43.960;10.954;2023-02-14T04:18:26;9.50;;;8.60;;
10343;SDS011;5217;43.960;10.954;2023-02-14T04:21:12;8.90;;;8.10;;
10343;SDS011;5217;43.960;10.954;2023-02-14T04:23:40;8.73;;;7.93;;
10343;SDS011;5217;43.960;10.954;2023-02-14T04:26:10;10.07;;;8.00;;
10343;SDS011;5217;43.960;10.954;2023-02-14T04:28:38;7.80;;;7.10;;
10343;SDS011;5217;43.960;10.954;2023-02-14T04:31:07;8.50;;;7.70;;
10343;SDS011;5217;43.960;10.954;2023-02-14T04:33:36;8.77;;;7.97;;
10343;SDS011;5217;43.960;10.954;2023-02-14T04:36:05;8.87;;;7.50;;
10343;SDS011;5217;43.960;10.954;2023-02-14T04:38:34;9.60;;;8.70;;
10343;SDS011;5217;43.960;10.954;2023-02-14T04:41:02;10.17;;;9.10;;
10343;SDS011;5217;43.960;10.954;2023-02-14T04:43:32;10.13;;;9.13;;
10343;SDS011;5217;43.960;10.954;2023-02-14T04:46:01;10.37;;;9.47;;
10343;SDS011;5217;43.960;10.954;2023-02-14T04:48:29;11.47;;;10.27;;
10343;SDS011;5217;43.960;10.954;2023-02-14T04:50:58;11.00;;;9.90;;
10343;SDS011;5217;43.960;10.954;2023-02-14T04:53:26;11.03;;;10.00;;
10343;SDS011;5217;43.960;10.954;2023-02-14T04:55:55;9.20;;;8.30;;
10343;SDS011;5217;43.960;10.954;2023-02-14T04:58:23;9.37;;;8.47;;
10343;SDS011;5217;43.960;10.954;2023-02-14T05:00:53;9.07;;;8.27;;
10343;SDS011;5217;43.960;10.954;2023-02-14T05:03:21;8.83;;;7.93;;
10343;SDS011;5217;43.960;10.954;2023-02-14T05:05:49;8.73;;;7.93;;
10343;SDS011;5217;43.960;10.954;2023-02-14T05:08:18;8.40;;;7.60;;
10343;SDS011;5217;43.960;10.954;2023-02-14T05:10:46;8.23;;;7.27;;
10343;SDS011;5217;43.960;10.954;2023-02-14T05:13:14;8.47;;;7.67;;
10343;SDS011;5217;43.960;10.954;2023-02-14T05:15:43;8.87;;;8.00;;
10343;SDS011;5217;43.960;10.954;2023-02-14T05:18:13;8.57;;;7.77;;
10343;SDS011;5217;43.960;10.954;2023-02-14T05:20:41;9.13;;;8.23;;
10343;SDS011;5217;43.960;10.954;2023-02-14T05:23:09;8.43;;;7.63;;
10343;SDS011;5217;43.960;10.954;2023-02-14T05:25:39;9.20;;;8.30;;
10343;SDS011;5217;43.960;10.954;2023-02-14T05:28:07;8.10;;;7.37;;
10343;SDS011;5217;43.960;10.954;2023-02-14T05:30:37;10.03;;;9.03;;
10343;SDS011;5217;43.960;10.954;2023-02-14T05:33:05;9.20;;;8.40;;
10343;SDS011;5217;43.960;10.954;2023-02-14T05:35:35;8.80;;;8.00;;
10343;SDS011;5217;43.960;10.954;2023-02-14T05:38:03;8.47;;;7.67;;
10343;SDS011;5217;43.960;10.954;2023-02-14T05:40:32;8.83;;;7.93;;
10343;SDS011;5217;43.960;10.954;2023-02-14T05:43:00;8.90;;;8.10;;
10343;SDS011;5217;43.960;10.954;2023-02-14T05:45:28;9.33;;;8.00;;
10343;SDS011;5217;43.960;10.954;2023-02-14T05:47:57;8.87;;;8.07;;
10343;SDS011;5217;43.960;10.954;2023-02-14T05:50:25;9.60;;;8.70;;
10343;SDS011;5217;43.960;10.954;2023-02-14T05:52:55;8.93;;;8.13;;
10343;SDS011;5217;43.960;10.954;2023-02-14T05:55:23;9.93;;;8.93;;
10343;SDS011;5217;43.960;10.954;2023-02-14T05:57:52;9.17;;;8.37;;
10343;SDS011;5217;43.960;10.954;2023-02-14T06:00:21;11.13;;;8.67;;
10343;SDS011;5217;43.960;10.954;2023-02-14T06:02:50;9.20;;;8.30;;
10343;SDS011;5217;43.960;10.954;2023-02-14T06:05:18;9.70;;;8.80;;
10343;SDS011;5217;43.960;10.954;2023-02-14T06:07:47;9.33;;;8.43;;
10343;SDS011;5217;43.960;10.954;2023-02-14T06:10:18;8.37;;;7.67;;
10343;SDS011;5217;43.960;10.954;2023-02-14T06:12:48;8.17;;;7.37;;
10343;SDS011;5217;43.960;10.954;2023-02-14T06:15:18;8.93;;;8.10;;
10343;SDS011;5217;43.960;10.954;2023-02-14T06:17:49;8.83;;;7.93;;
10343;SDS011;5217;43.960;10.954;2023-02-14T06:20:19;9.30;;;8.37;;
10343;SDS011;5217;43.960;10.954;2023-02-14T06:22:49;8.97;;;8.10;;
10343;SDS011;5217;43.960;10.954;2023-02-14T06:25:19;9.47;;;8.57;;
10343;SDS011;5217;43.960;10.954;2023-02-14T06:27:48;10.07;;;9.13;;
10343;SDS011;5217;43.960;10.954;2023-02-14T06:30:17;12.23;;;10.53;;
10343;SDS011;5217;43.960;10.954;2023-02-14T06:32:46;12.30;;;11.00;;
10343;SDS011;5217;43.960;10.954;2023-02-14T06:35:14;12.43;;;11.23;;
10343;SDS011;5217;43.960;10.954;2023-02-14T06:37:43;12.00;;;10.80;;
10343;SDS011;5217;43.960;10.954;2023-02-14T06:40:12;11.17;;;10.07;;
10343;SDS011;5217;43.960;10.954;2023-02-14T06:42:42;11.60;;;10.50;;
10343;SDS011;5217;43.960;10.954;2023-02-14T06:45:10;11.23;;;10.00;;
10343;SDS011;5217;43.960;10.954;2023-02-14T06:47:39;10.37;;;9.37;;
10343;SDS011;5217;43.960;10.954;2023-02-14T06:50:07;10.33;;;9.33;;
10343;SDS011;5217;43.960;10.954;2023-02-14T06:52:37;10.33;;;9.33;;
10343;SDS011;5217;43.960;10.954;2023-02-14T06:55:07;10.37;;;9.47;;
10343;SDS011;5217;43.960;10.954;2023-02-14T06:57:37;9.80;;;8.90;;
10343;SDS011;5217;43.960;10.954;2023-02-14T07:00:08;9.97;;;9.00;;
10343;SDS011;5217;43.960;10.954;2023-02-14T07:02:40;11.70;;;10.53;;
10343;SDS011;5217;43.960;10.954;2023-02-14T07:05:09;12.97;;;10.73;;
10343;SDS011;5217;43.960;10.954;2023-02-14T07:07:37;11.63;;;10.60;;
10343;SDS011;5217;43.960;10.954;2023-02-14T07:10:06;13.37;;;12.07;;
10343;SDS011;5217;43.960;10.954;2023-02-14T07:12:34;12.70;;;11.40;;
10343;SDS011;5217;43.960;10.954;2023-02-14T07:15:05;12.97;;;11.63;;
10343;SDS011;5217;43.960;10.954;2023-02-14T07:17:36;13.23;;;11.83;;
10343;SDS011;5217;43.960;10.954;2023-02-14T07:20:05;13.47;;;12.07;;
10343;SDS011;5217;43.960;10.954;2023-02-14T07:22:34;15.30;;;13.70;;
10343;SDS011;5217;43.960;10.954;2023-02-14T07:25:04;16.57;;;15.07;;
10343;SDS011;5217;43.960;10.954;2023-02-14T07:27:34;17.57;;;15.87;;
10343;SDS011;5217;43.960;10.954;2023-02-14T07:30:02;16.87;;;15.23;;
10343;SDS011;5217;43.960;10.954;2023-02-14T07:32:33;16.23;;;14.73;;
10343;SDS011;5217;43.960;10.954;2023-02-14T07:35:03;18.30;;;16.50;;
10343;SDS011;5217;43.960;10.954;2023-02-14T07:37:32;20.43;;;18.47;;
10343;SDS011;5217;43.960;10.954;2023-02-14T07:40:01;20.13;;;18.13;;
10343;SDS011;5217;43.960;10.954;2023-02-14T07:42:37;20.00;;;17.90;;
10343;SDS011;5217;43.960;10.954;2023-02-14T07:45:06;19.30;;;17.40;;
10343;SDS011;5217;43.960;10.954;2023-02-14T07:47:48;19.40;;;17.50;;
10343;SDS011;5217;43.960;10.954;2023-02-14T07:50:18;21.23;;;19.03;;
10343;SDS011;5217;43.960;10.954;2023-02-14T07:52:47;20.67;;;18.60;;
10343;SDS011;5217;43.960;10.954;2023-02-14T07:55:16;22.13;;;19.83;;
10343;SDS011;5217;43.960;10.954;2023-02-14T07:57:46;22.43;;;20.13;;
10343;SDS011;5217;43.960;10.954;2023-02-14T08:00:18;21.53;;;19.33;;
10343;SDS011;5217;43.960;10.954;2023-02-14T08:02:49;25.20;;;22.60;;
10343;SDS011;5217;43.960;10.954;2023-02-14T08:05:17;26.10;;;23.50;;
10343;SDS011;5217;43.960;10.954;2023-02-14T08:07:46;26.60;;;23.80;;
10343;SDS011;5217;43.960;10.954;2023-02-14T08:10:15;24.67;;;22.17;;
10343;SDS011;5217;43.960;10.954;2023-02-14T08:12:44;23.87;;;21.37;;
10343;SDS011;5217;43.960;10.954;2023-02-14T08:15:25;23.20;;;20.80;;
10343;SDS011;5217;43.960;10.954;2023-02-14T08:18:14;23.80;;;21.40;;
10343;SDS011;5217;43.960;10.954;2023-02-14T08:20:43;25.43;;;22.83;;
10343;SDS011;5217;43.960;10.954;2023-02-14T08:23:14;25.33;;;22.83;;
10343;SDS011;5217;43.960;10.954;2023-02-14T08:25:43;23.83;;;21.63;;
10343;SDS011;5217;43.960;10.954;2023-02-14T08:28:11;24.07;;;21.77;;
10343;SDS011;5217;43.960;10.954;2023-02-14T08:30:41;24.73;;;22.33;;
10343;SDS011;5217;43.960;10.954;2023-02-14T08:33:10;24.80;;;22.20;;
10343;SDS011;5217;43.960;10.954;2023-02-14T08:35:40;24.50;;;22.10;;
10343;SDS011;5217;43.960;10.954;2023-02-14T08:38:09;25.03;;;22.50;;
10343;SDS011;5217;43.960;10.954;2023-02-14T08:40:37;23.77;;;21.27;;
10343;SDS011;5217;43.960;10.954;2023-02-14T08:43:08;24.00;;;21.60;;
10343;SDS011;5217;43.960;10.954;2023-02-14T08:45:37;23.87;;;21.67;;
10343;SDS011;5217;43.960;10.954;2023-02-14T08:48:06;21.97;;;19.87;;
10343;SDS011;5217;43.960;10.954;2023-02-14T08:50:37;21.70;;;19.20;;
10343;SDS011;5217;43.960;10.954;2023-02-14T08:53:07;16.83;;;15.20;;
10343;SDS011;5217;43.960;10.954;2023-02-14T08:55:37;17.70;;;15.93;;
10343;SDS011;5217;43.960;10.954;2023-02-14T08:58:06;17.20;;;15.60;;
10343;SDS011;5217;43.960;10.954;2023-02-14T09:00:35;19.00;;;17.10;;
10343;SDS011;5217;43.960;10.954;2023-02-14T09:03:03;19.97;;;17.97;;
10343;SDS011;5217;43.960;10.954;2023-02-14T09:05:32;21.03;;;19.03;;
10343;SDS011;5217;43.960;10.954;2023-02-14T09:08:01;23.37;;;21.07;;
10343;SDS011;5217;43.960;10.954;2023-02-14T09:10:31;23.77;;;21.47;;
10343;SDS011;5217;43.960;10.954;2023-02-14T09:12:59;23.90;;;21.50;;
10343;SDS011;5217;43.960;10.954;2023-02-14T09:15:28;24.03;;;21.57;;
10343;SDS011;5217;43.960;10.954;2023-02-14T09:17:56;23.50;;;21.27;;
10343;SDS011;5217;43.960;10.954;2023-02-14T09:20:24;23.57;;;21.37;;
10343;SDS011;5217;43.960;10.954;2023-02-14T09:22:54;23.13;;;20.93;;
10343;SDS011;5217;43.960;10.954;2023-02-14T09:25:25;22.77;;;20.57;;
10343;SDS011;5217;43.960;10.954;2023-02-14T09:27:55;23.23;;;21.03;;
10343;SDS011;5217;43.960;10.954;2023-02-14T09:30:24;22.93;;;20.63;;
10343;SDS011;5217;43.960;10.954;2023-02-14T09:32:52;23.00;;;20.70;;
10343;SDS011;5217;43.960;10.954;2023-02-14T09:35:21;24.03;;;20.83;;
10343;SDS011;5217;43.960;10.954;2023-02-14T09:38:08;22.97;;;20.57;;
10343;SDS011;5217;43.960;10.954;2023-02-14T09:40:44;22.33;;;20.23;;
10343;SDS011;5217;43.960;10.954;2023-02-14T09:43:17;21.40;;;19.43;;
10343;SDS011;5217;43.960;10.954;2023-02-14T09:45:51;20.23;;;18.33;;
10343;SDS011;5217;43.960;10.954;2023-02-14T09:48:23;21.77;;;19.63;;
10343;SDS011;5217;43.960;10.954;2023-02-14T09:50:56;20.27;;;18.27;;
10343;SDS011;5217;43.960;10.954;2023-02-14T09:53:29;20.27;;;18.27;;
10343;SDS011;5217;43.960;10.954;2023-02-14T09:56:02;20.10;;;18.00;;
10343;SDS011;5217;43.960;10.954;2023-02-14T09:58:39;19.43;;;17.63;;
10343;SDS011;5217;43.960;10.954;2023-02-14T10:01:14;18.73;;;16.93;;
10343;SDS011;5217;43.960;10.954;2023-02-14T10:03:59;18.90;;;16.80;;
10343;SDS011;5217;43.960;10.954;2023-02-14T10:06:47;18.77;;;17.07;;
10343;SDS011;5217;43.960;10.954;2023-02-14T10:09:22;18.60;;;16.87;;
10343;SDS011;5217;43.960;10.954;2023-02-14T10:12:12;18.27;;;16.60;;
10343;SDS011;5217;43.960;10.954;2023-02-14T10:14:48;18.93;;;17.23;;
10343;SDS011;5217;43.960;10.954;2023-02-14T10:17:20;18.83;;;16.97;;
10343;SDS011;5217;43.960;10.954;2023-02-14T10:19:54;17.50;;;15.87;;
10343;SDS011;5217;43.960;10.954;2023-02-14T10:22:29;17.27;;;15.70;;
10343;SDS011;5217;43.960;10.954;2023-02-14T10:25:06;17.83;;;16.23;;
10343;SDS011;5217;43.960;10.954;2023-02-14T10:27:44;19.00;;;17.20;;
10343;SDS011;5217;43.960;10.954;2023-02-14T10:30:15;18.40;;;16.53;;
10343;SDS011;5217;43.960;10.954;2023-02-14T10:32:46;17.07;;;15.47;;
10343;SDS011;5217;43.960;10.954;2023-02-14T10:35:25;17.33;;;15.63;;
10343;SDS011;5217;43.960;10.954;2023-02-14T10:38:02;17.40;;;15.50;;
10343;SDS011;5217;43.960;10.954;2023-02-14T10:40:40;18.00;;;16.27;;
10343;SDS011;5217;43.960;10.954;2023-02-14T10:43:24;16.63;;;14.83;;
10343;SDS011;5217;43.960;10.954;2023-02-14T10:46:05;14.90;;;13.50;;
10343;SDS011;5217;43.960;10.954;2023-02-14T10:48:45;14.15;;;12.82;;
10343;SDS011;5217;43.960;10.954;2023-02-14T10:51:22;15.13;;;13.50;;
10343;SDS011;5217;43.960;10.954;2023-02-14T10:54:02;15.75;;;12.73;;
10343;SDS011;5217;43.960;10.954;2023-02-14T10:56:44;14.90;;;13.07;;
10343;SDS011;5217;43.960;10.954;2023-02-14T10:59:17;17.45;;;13.07;;
10343;SDS011;5217;43.960;10.954;2023-02-14T11:01:50;14.25;;;12.35;;
10343;SDS011;5217;43.960;10.954;2023-02-14T11:04:20;15.57;;;13.98;;
10343;SDS011;5217;43.960;10.954;2023-02-14T11:06:50;14.73;;;13.13;;
10343;SDS011;5217;43.960;10.954;2023-02-14T11:09:20;13.40;;;12.02;;
10343;SDS011;5217;43.960;10.954;2023-02-14T11:11:49;12.48;;;11.02;;
10343;SDS011;5217;43.960;10.954;2023-02-14T11:14:21;13.27;;;11.25;;
10343;SDS011;5217;43.960;10.954;2023-02-14T11:16:53;15.00;;;12.93;;
10343;SDS011;5217;43.960;10.954;2023-02-14T11:19:25;13.85;;;12.45;;
10343;SDS011;5217;43.960;10.954;2023-02-14T11:21:55;13.07;;;11.57;;
10343;SDS011;5217;43.960;10.954;2023-02-14T11:24:26;11.30;;;10.18;;
10343;SDS011;5217;43.960;10.954;2023-02-14T11:26:58;13.00;;;11.65;;
10343;SDS011;5217;43.960;10.954;2023-02-14T11:29:28;13.52;;;12.13;;
10343;SDS011;5217;43.960;10.954;2023-02-14T11:32:06;13.73;;;12.23;;
10343;SDS011;5217;43.960;10.954;2023-02-14T11:34:36;14.20;;;12.57;;
10343;SDS011;5217;43.960;10.954;2023-02-14T11:37:22;14.20;;;12.70;;
10343;SDS011;5217;43.960;10.954;2023-02-14T11:39:53;13.70;;;12.27;;
10343;SDS011;5217;43.960;10.954;2023-02-14T11:42:34;16.15;;;12.43;;
10343;SDS011;5217;43.960;10.954;2023-02-14T11:45:11;13.63;;;11.32;;
10343;SDS011;5217;43.960;10.954;2023-02-14T11:48:14;13.20;;;11.25;;
10343;SDS011;5217;43.960;10.954;2023-02-14T11:51:00;15.10;;;12.63;;
10343;SDS011;5217;43.960;10.954;2023-02-14T11:53:35;13.45;;;12.05;;
10343;SDS011;5217;43.960;10.954;2023-02-14T11:56:10;13.57;;;11.38;;
10343;SDS011;5217;43.960;10.954;2023-02-14T11:58:40;14.73;;;12.75;;
10343;SDS011;5217;43.960;10.954;2023-02-14T12:01:19;14.55;;;12.98;;
10343;SDS011;5217;43.960;10.954;2023-02-14T12:03:51;17.27;;;12.57;;
10343;SDS011;5217;43.960;10.954;2023-02-14T12:06:22;15.18;;;12.52;;
10343;SDS011;5217;43.960;10.954;2023-02-14T12:08:53;14.15;;;12.65;;
10343;SDS011;5217;43.960;10.954;2023-02-14T12:11:38;14.90;;;12.63;;
10343;SDS011;5217;43.960;10.954;2023-02-14T12:14:08;14.98;;;13.38;;
10343;SDS011;5217;43.960;10.954;2023-02-14T12:16:49;14.23;;;12.38;;
10343;SDS011;5217;43.960;10.954;2023-02-14T12:19:27;15.38;;;13.77;;
10343;SDS011;5217;43.960;10.954;2023-02-14T12:22:04;16.75;;;14.65;;
10343;SDS011;5217;43.960;10.954;2023-02-14T12:24:37;15.95;;;14.25;;
10343;SDS011;5217;43.960;10.954;2023-02-14T12:27:18;15.93;;;14.30;;
10343;SDS011;5217;43.960;10.954;2023-02-14T12:29:51;17.25;;;15.52;;
10343;SDS011;5217;43.960;10.954;2023-02-14T12:32:27;16.70;;;14.90;;
10343;SDS011;5217;43.960;10.954;2023-02-14T12:34:59;19.00;;;16.92;;
10343;SDS011;5217;43.960;10.954;2023-02-14T12:37:33;20.50;;;17.38;;
10343;SDS011;5217;43.960;10.954;2023-02-14T12:40:20;17.67;;;15.85;;
10343;SDS011;5217;43.960;10.954;2023-02-14T12:42:57;21.80;;;17.48;;
10343;SDS011;5217;43.960;10.954;2023-02-14T12:45:43;18.55;;;16.67;;
10343;SDS011;5217;43.960;10.954;2023-02-14T12:48:23;18.58;;;16.55;;
10343;SDS011;5217;43.960;10.954;2023-02-14T12:51:00;17.10;;;14.57;;
10343;SDS011;5217;43.960;10.954;2023-02-14T12:56:32;18.35;;;16.45;;
10343;SDS011;5217;43.960;10.954;2023-02-14T12:59:12;21.05;;;18.67;;
10343;SDS011;5217;43.960;10.954;2023-02-14T13:01:58;20.30;;;17.73;;
10343;SDS011;5217;43.960;10.954;2023-02-14T13:07:33;19.13;;;15.13;;
10343;SDS011;5217;43.960;10.954;2023-02-14T13:10:17;17.25;;;15.15;;
10343;SDS011;5217;43.960;10.954;2023-02-14T13:12:57;16.70;;;14.98;;
10343;SDS011;5217;43.960;10.954;2023-02-14T13:15:31;17.83;;;16.02;;
10343;SDS011;5217;43.960;10.954;2023-02-14T13:18:10;19.33;;;17.40;;
10343;SDS011;5217;43.960;10.954;2023-02-14T13:20:47;19.02;;;15.18;;
10343;SDS011;5217;43.960;10.954;2023-02-14T13:23:21;18.55;;;16.40;;
10343;SDS011;5217;43.960;10.954;2023-02-14T13:25:55;16.45;;;14.85;;
10343;SDS011;5217;43.960;10.954;2023-02-14T13:28:27;16.90;;;15.15;;
10343;SDS011;5217;43.960;10.954;2023-02-14T13:30:58;17.88;;;16.08;;
10343;SDS011;5217;43.960;10.954;2023-02-14T13:33:30;16.85;;;15.15;;
10343;SDS011;5217;43.960;10.954;2023-02-14T13:36:02;16.10;;;14.57;;
10343;SDS011;5217;43.960;10.954;2023-02-14T13:38:36;17.27;;;15.48;;
10343;SDS011;5217;43.960;10.954;2023-02-14T13:41:08;17.77;;;15.88;;
10343;SDS011;5217;43.960;10.954;2023-02-14T13:43:47;21.25;;;17.95;;
10343;SDS011;5217;43.960;10.954;2023-02-14T13:49:22;16.33;;;14.55;;
10343;SDS011;5217;43.960;10.954;2023-02-14T13:51:57;17.48;;;15.60;;
10343;SDS011;5217;43.960;10.954;2023-02-14T13:54:32;15.77;;;14.18;;
10343;SDS011;5217;43.960;10.954;2023-02-14T14:02:53;17.45;;;15.68;;
10343;SDS011;5217;43.960;10.954;2023-02-14T14:11:11;18.77;;;13.70;;
10343;SDS011;5217;43.960;10.954;2023-02-14T14:13:56;14.77;;;13.35;;
10343;SDS011;5217;43.960;10.954;2023-02-14T14:16:28;15.38;;;13.77;;
10343;SDS011;5217;43.960;10.954;2023-02-14T14:18:59;14.00;;;12.57;;
10343;SDS011;5217;43.960;10.954;2023-02-14T14:21:30;14.73;;;13.23;;
10343;SDS011;5217;43.960;10.954;2023-02-14T14:24:01;15.60;;;14.00;;
10343;SDS011;5217;43.960;10.954;2023-02-14T14:26:43;14.20;;;12.45;;
10343;SDS011;5217;43.960;10.954;2023-02-14T14:29:15;14.70;;;13.20;;
10343;SDS011;5217;43.960;10.954;2023-02-14T14:31:46;13.85;;;12.38;;
10343;SDS011;5217;43.960;10.954;2023-02-14T14:34:21;14.27;;;12.73;;
10343;SDS011;5217;43.960;10.954;2023-02-14T14:36:59;13.63;;;12.32;;
10343;SDS011;5217;43.960;10.954;2023-02-14T14:39:29;14.05;;;12.60;;
10343;SDS011;5217;43.960;10.954;2023-02-14T14:42:07;13.23;;;11.93;;
10343;SDS011;5217;43.960;10.954;2023-02-14T14:44:43;16.10;;;14.25;;
10343;SDS011;5217;43.960;10.954;2023-02-14T14:47:15;19.45;;;16.60;;
10343;SDS011;5217;43.960;10.954;2023-02-14T14:49:46;16.40;;;14.65;;
10343;SDS011;5217;43.960;10.954;2023-02-14T14:52:20;13.90;;;12.45;;
10343;SDS011;5217;43.960;10.954;2023-02-14T14:54:57;13.73;;;12.27;;
10343;SDS011;5217;43.960;10.954;2023-02-14T14:57:27;16.50;;;13.40;;
10343;SDS011;5217;43.960;10.954;2023-02-14T15:00:06;14.75;;;13.15;;
10343;SDS011;5217;43.960;10.954;2023-02-14T15:02:54;15.25;;;13.43;;
10343;SDS011;5217;43.960;10.954;2023-02-14T15:05:29;17.75;;;15.95;;
10343;SDS011;5217;43.960;10.954;2023-02-14T15:08:12;19.10;;;16.73;;
10343;SDS011;5217;43.960;10.954;2023-02-14T15:11:05;17.50;;;14.55;;
10343;SDS011;5217;43.960;10.954;2023-02-14T15:13:39;15.23;;;13.25;;
10343;SDS011;5217;43.960;10.954;2023-02-14T15:16:17;15.43;;;13.63;;
10343;SDS011;5217;43.960;10.954;2023-02-14T15:21:15;15.10;;;13.35;;
10343;SDS011;5217;43.960;10.954;2023-02-14T15:23:44;14.88;;;13.02;;
10343;SDS011;5217;43.960;10.954;2023-02-14T15:26:17;14.95;;;13.38;;
10343;SDS011;5217;43.960;10.954;2023-02-14T15:28:54;13.93;;;12.52;;
10343;SDS011;5217;43.960;10.954;2023-02-14T15:31:27;13.07;;;11.70;;
10343;SDS011;5217;43.960;10.954;2023-02-14T15:33:57;13.45;;;12.02;;
10343;SDS011;5217;43.960;10.954;2023-02-14T15:36:28;15.25;;;12.60;;
10343;SDS011;5217;43.960;10.954;2023-02-14T15:38:58;13.82;;;12.43;;
10343;SDS011;5217;43.960;10.954;2023-02-14T15:41:29;13.57;;;12.20;;